createdAt,value
2022-10-26T00:02:24.427Z,14.50
2022-10-26T00:05:12.319Z,14.35
2022-10-26T00:08:00.234Z,14.31
2022-10-26T00:10:48.111Z,14.42
2022-10-26T00:13:38.769Z,14.53
2022-10-26T00:16:28.499Z,14.44
2022-10-26T00:19:16.452Z,14.27
2022-10-26T00:22:04.629Z,13.71
2022-10-26T00:24:52.551Z,14.36
2022-10-26T00:27:40.596Z,14.40
2022-10-26T00:30:29.901Z,14.41
2022-10-26T00:33:18.058Z,14.30
2022-10-26T00:36:06.315Z,14.46
2022-10-26T00:38:55.681Z,14.38
2022-10-26T00:41:43.590Z,14.48
2022-10-26T00:44:57.623Z,14.42
2022-10-26T00:47:50.039Z,13.95
2022-10-26T00:50:42.309Z,14.42
2022-10-26T00:53:31.105Z,14.49
2022-10-26T00:56:19.776Z,14.49
2022-10-26T00:59:10.196Z,14.43
2022-10-26T01:01:58.358Z,14.38
2022-10-26T01:04:48.626Z,14.32
2022-10-26T01:07:37.649Z,14.48
2022-10-26T01:10:26.788Z,14.52
2022-10-26T01:13:16.589Z,14.50
2022-10-26T01:16:17.111Z,14.43
2022-10-26T01:19:34.563Z,14.37
2022-10-26T01:22:27.611Z,14.35
2022-10-26T01:25:33.023Z,14.24
2022-10-26T01:28:34.113Z,14.30
2022-10-26T01:31:31.339Z,14.24
2022-10-26T01:34:23.853Z,14.29
2022-10-26T01:37:14.809Z,14.32
2022-10-26T01:40:10.732Z,14.46
2022-10-26T01:43:03.459Z,14.44
2022-10-26T01:45:53.325Z,14.50
2022-10-26T01:48:44.178Z,14.55
2022-10-26T01:51:33.052Z,14.67
2022-10-26T01:54:20.993Z,14.68
2022-10-26T01:57:12.302Z,14.60
2022-10-26T02:00:10.343Z,14.61
2022-10-26T02:03:05.380Z,14.66
2022-10-26T02:06:04.072Z,14.60
2022-10-26T02:08:59.211Z,14.51
2022-10-26T02:11:50.358Z,14.52
2022-10-26T02:14:48.513Z,14.49
2022-10-26T02:17:47.044Z,14.55
2022-10-26T02:20:40.191Z,14.51
2022-10-26T02:23:31.320Z,14.30
2022-10-26T02:26:23.342Z,14.31
2022-10-26T02:29:16.457Z,14.26
2022-10-26T02:32:05.911Z,14.27
2022-10-26T02:34:56.542Z,14.21
2022-10-26T02:37:47.587Z,14.11
2022-10-26T02:40:38.548Z,14.11
2022-10-26T02:43:29.116Z,14.08
2022-10-26T02:46:21.541Z,14.16
2022-10-26T02:49:09.607Z,14.16
2022-10-26T02:52:05.578Z,13.69
2022-10-26T02:55:00.284Z,14.11
2022-10-26T02:57:54.916Z,14.21
2022-10-26T03:00:43.639Z,14.24
2022-10-26T03:03:31.710Z,14.33
2022-10-26T03:06:23.821Z,14.19
2022-10-26T03:09:11.816Z,14.17
2022-10-26T03:11:59.793Z,14.26
2022-10-26T03:14:48.981Z,14.40
2022-10-26T03:17:36.892Z,14.47
2022-10-26T03:20:24.840Z,14.42
2022-10-26T03:23:12.817Z,14.39
2022-10-26T03:26:01.276Z,14.18
2022-10-26T03:28:49.142Z,14.23
2022-10-26T03:31:38.373Z,14.26
2022-10-26T03:34:26.442Z,14.36
2022-10-26T03:37:14.422Z,14.64
2022-10-26T03:40:02.326Z,14.59
2022-10-26T03:42:50.489Z,14.52
2022-10-26T03:45:38.586Z,14.48
2022-10-26T03:48:27.985Z,14.40
2022-10-26T03:51:15.884Z,14.41
2022-10-26T03:54:03.853Z,14.38
2022-10-26T03:56:55.105Z,14.23
2022-10-26T03:59:43.338Z,14.28
2022-10-26T04:02:31.217Z,14.32
2022-10-26T04:05:20.516Z,14.29
2022-10-26T04:08:09.672Z,14.25
2022-10-26T04:10:59.929Z,14.12
2022-10-26T04:13:50.314Z,14.05
2022-10-26T04:16:38.298Z,13.96
2022-10-26T04:19:26.206Z,13.92
2022-10-26T04:22:15.589Z,13.86
2022-10-26T04:25:03.516Z,13.81
2022-10-26T04:27:51.661Z,13.67
2022-10-26T04:30:40.633Z,13.55
2022-10-26T04:33:28.597Z,13.63
2022-10-26T04:36:16.558Z,13.46
2022-10-26T04:39:06.037Z,13.37
2022-10-26T04:41:55.159Z,13.13
2022-10-26T04:44:43.140Z,13.28
2022-10-26T04:47:31.001Z,13.31
2022-10-26T04:50:18.972Z,13.36
2022-10-26T04:53:07.654Z,13.26
2022-10-26T04:56:00.915Z,13.23
2022-10-26T04:58:48.831Z,13.25
2022-10-26T05:01:36.768Z,13.15
2022-10-26T05:04:24.837Z,13.08
2022-10-26T05:07:12.715Z,13.21
2022-10-26T05:10:00.641Z,13.17
2022-10-26T05:12:52.909Z,13.20
2022-10-26T05:15:40.862Z,13.09
2022-10-26T05:18:28.779Z,13.09
2022-10-26T05:21:19.483Z,13.25
2022-10-26T05:24:10.193Z,13.37
2022-10-26T05:27:00.810Z,13.38
2022-10-26T05:29:50.062Z,13.45
2022-10-26T05:32:37.917Z,13.67
2022-10-26T05:35:27.113Z,13.92
2022-10-26T05:38:16.878Z,14.13
2022-10-26T05:41:04.924Z,14.19
2022-10-26T05:43:52.930Z,14.24
2022-10-26T05:46:42.231Z,14.27
2022-10-26T05:49:30.140Z,14.30
2022-10-26T05:52:18.038Z,14.24
2022-10-26T05:58:00.489Z,14.34
2022-10-26T06:01:00.757Z,14.26
2022-10-26T06:04:03.995Z,14.24
2022-10-26T06:06:39.809Z,14.38
2022-10-26T06:09:10.485Z,14.43
2022-10-26T06:11:38.758Z,13.76
2022-10-26T06:14:07.556Z,14.46
2022-10-26T06:16:46.361Z,14.53
2022-10-26T06:19:28.013Z,14.68
2022-10-26T06:22:05.457Z,15.14
2022-10-26T06:24:40.113Z,15.40
2022-10-26T06:27:20.467Z,15.58
2022-10-26T06:29:56.812Z,15.61
2022-10-26T06:32:25.415Z,15.64
2022-10-26T06:35:04.858Z,15.70
2022-10-26T06:37:36.757Z,15.86
2022-10-26T06:40:06.306Z,15.85
2022-10-26T06:42:34.419Z,15.90
2022-10-26T06:45:02.628Z,15.98
2022-10-26T06:47:39.086Z,16.05
2022-10-26T06:50:20.325Z,16.21
2022-10-26T06:52:56.399Z,16.29
2022-10-26T06:55:26.713Z,16.23
2022-10-26T06:57:54.514Z,16.28
2022-10-26T07:00:25.094Z,16.41
2022-10-26T07:02:53.395Z,16.32
2022-10-26T07:05:22.798Z,16.24
2022-10-26T07:07:50.692Z,16.28
2022-10-26T07:10:18.452Z,16.40
2022-10-26T07:12:46.200Z,16.35
2022-10-26T07:15:13.825Z,16.19
2022-10-26T07:17:45.892Z,16.24
2022-10-26T07:20:14.421Z,16.24
2022-10-26T07:22:43.750Z,16.12
2022-10-26T07:25:12.259Z,15.96
2022-10-26T07:27:40.185Z,16.17
2022-10-26T07:30:08.862Z,16.04
2022-10-26T07:32:36.618Z,16.10
2022-10-26T07:35:04.450Z,16.21
2022-10-26T07:37:32.212Z,16.39
2022-10-26T07:40:05.680Z,16.36
2022-10-26T07:42:36.416Z,16.08
2022-10-26T07:45:05.194Z,16.31
2022-10-26T07:47:32.913Z,16.44
2022-10-26T07:50:00.536Z,16.41
2022-10-26T07:52:28.135Z,16.45
2022-10-26T07:54:55.735Z,16.35
2022-10-26T07:57:24.699Z,16.11
2022-10-26T07:59:52.484Z,16.01
2022-10-26T08:02:20.781Z,16.19
2022-10-26T08:04:48.390Z,16.21
2022-10-26T08:07:16.019Z,16.31
2022-10-26T08:09:43.666Z,16.44
2022-10-26T08:12:13.477Z,16.63
2022-10-26T08:14:42.583Z,16.52
2022-10-26T08:17:10.664Z,16.68
2022-10-26T08:19:38.547Z,16.69
2022-10-26T08:22:06.432Z,16.72
2022-10-26T08:24:34.113Z,16.81
2022-10-26T08:27:01.747Z,16.88
2022-10-26T08:29:29.504Z,16.81
2022-10-26T08:31:58.691Z,16.81
2022-10-26T08:34:26.343Z,16.86
2022-10-26T08:36:53.960Z,16.87
2022-10-26T08:39:21.846Z,16.96
2022-10-26T08:41:53.414Z,17.01
2022-10-26T08:44:26.866Z,17.09
2022-10-26T08:46:59.476Z,16.88
2022-10-26T08:49:31.425Z,17.04
2022-10-26T08:52:02.209Z,16.97
2022-10-26T08:54:36.628Z,16.92
2022-10-26T08:57:12.900Z,17.01
2022-10-26T08:59:47.834Z,17.21
2022-10-26T09:02:18.560Z,17.42
2022-10-26T09:04:46.483Z,17.53
2022-10-26T09:07:25.837Z,17.35
2022-10-26T09:10:01.667Z,17.50
2022-10-26T09:12:38.726Z,17.35
2022-10-26T09:15:15.939Z,17.48
2022-10-26T09:17:52.198Z,17.64
2022-10-26T09:20:40.617Z,17.62
2022-10-26T09:23:19.746Z,17.90
2022-10-26T09:25:52.642Z,17.76
2022-10-26T09:28:20.626Z,17.92
2022-10-26T09:30:49.394Z,17.93
2022-10-26T09:33:21.492Z,18.16
2022-10-26T09:35:52.756Z,18.20
2022-10-26T09:38:26.220Z,18.11
2022-10-26T09:40:58.849Z,17.96
2022-10-26T09:43:32.826Z,18.23
2022-10-26T09:46:00.461Z,18.34
2022-10-26T09:48:37.945Z,18.38
2022-10-26T09:51:05.942Z,18.22
2022-10-26T09:53:34.070Z,18.19
2022-10-26T09:56:06.505Z,18.47
2022-10-26T09:58:38.331Z,18.59
2022-10-26T10:01:06.161Z,18.73
2022-10-26T10:03:35.132Z,18.65
2022-10-26T10:06:17.666Z,19.05
2022-10-26T10:08:46.531Z,19.09
2022-10-26T10:11:15.775Z,19.20
2022-10-26T10:13:45.649Z,19.37
2022-10-26T10:16:21.385Z,19.31
2022-10-26T10:18:56.852Z,18.97
2022-10-26T10:21:35.599Z,19.01
2022-10-26T10:24:03.256Z,18.84
2022-10-26T10:26:30.878Z,18.97
2022-10-26T10:28:59.738Z,19.07
2022-10-26T10:31:31.856Z,19.04
2022-10-26T10:34:01.227Z,19.02
2022-10-26T10:36:31.649Z,19.30
2022-10-26T10:39:00.257Z,19.20
2022-10-26T10:41:30.311Z,19.12
2022-10-26T10:44:06.759Z,19.21
2022-10-26T10:46:34.708Z,19.45
2022-10-26T10:49:05.880Z,19.36
2022-10-26T10:51:39.519Z,19.14
2022-10-26T10:54:21.789Z,19.55
2022-10-26T10:56:53.355Z,19.38
2022-10-26T10:59:39.487Z,19.19
2022-10-26T11:02:32.280Z,19.37
2022-10-26T11:05:20.855Z,19.56
2022-10-26T11:07:57.136Z,19.59
2022-10-26T11:10:30.739Z,19.68
2022-10-26T11:13:01.828Z,19.82
2022-10-26T11:15:33.805Z,19.57
2022-10-26T11:18:07.394Z,19.63
2022-10-26T11:20:40.646Z,19.61
2022-10-26T11:23:13.228Z,19.67
2022-10-26T11:25:49.120Z,19.62
2022-10-26T11:28:21.262Z,19.73
2022-10-26T11:30:56.404Z,19.82
2022-10-26T11:33:30.345Z,19.56
2022-10-26T11:36:04.109Z,20.04
2022-10-26T11:38:46.255Z,20.08
2022-10-26T11:41:30.813Z,20.08
2022-10-26T11:44:06.781Z,20.15
2022-10-26T11:46:38.969Z,20.10
2022-10-26T11:49:12.781Z,19.90
2022-10-26T11:51:45.772Z,19.91
2022-10-26T11:54:18.001Z,20.29
2022-10-26T11:56:49.484Z,20.24
2022-10-26T11:59:21.109Z,20.19
2022-10-26T12:01:51.116Z,20.27
2022-10-26T12:04:22.496Z,20.09
2022-10-26T12:06:53.724Z,19.96
2022-10-26T12:09:24.927Z,20.08
2022-10-26T12:11:58.819Z,20.35
2022-10-26T12:14:35.088Z,20.01
2022-10-26T12:17:11.141Z,20.24
2022-10-26T12:19:48.860Z,20.30
2022-10-26T12:22:19.930Z,20.25
2022-10-26T12:25:05.426Z,20.21
2022-10-26T12:27:50.209Z,20.20
2022-10-26T12:30:27.898Z,20.16
2022-10-26T12:32:56.881Z,20.40
2022-10-26T12:35:39.240Z,20.47
2022-10-26T12:38:49.712Z,20.59
2022-10-26T12:41:24.100Z,20.47
2022-10-26T12:43:55.835Z,20.71
2022-10-26T12:46:39.340Z,20.79
2022-10-26T12:49:48.172Z,21.01
2022-10-26T12:52:26.831Z,20.93
2022-10-26T12:55:14.512Z,21.11
2022-10-26T12:57:54.110Z,21.14
2022-10-26T13:00:25.324Z,21.32
2022-10-26T13:03:08.867Z,21.08
2022-10-26T13:06:02.543Z,21.23
2022-10-26T13:08:41.168Z,20.97
2022-10-26T13:11:17.315Z,20.78
2022-10-26T13:13:53.263Z,20.46
2022-10-26T13:16:21.136Z,20.47
2022-10-26T13:18:49.407Z,20.39
2022-10-26T13:21:18.580Z,20.24
2022-10-26T13:23:48.450Z,20.32
2022-10-26T13:26:17.882Z,20.45
2022-10-26T13:28:50.090Z,20.45
2022-10-26T13:31:58.309Z,20.43
2022-10-26T13:34:29.243Z,20.30
2022-10-26T13:37:06.139Z,20.15
2022-10-26T13:39:38.308Z,20.47
2022-10-26T13:42:08.112Z,20.67
2022-10-26T13:44:45.705Z,20.78
2022-10-26T13:47:17.569Z,20.55
2022-10-26T13:49:48.742Z,20.92
2022-10-26T13:52:21.190Z,20.95
2022-10-26T13:54:52.334Z,20.63
2022-10-26T13:57:23.903Z,20.96
2022-10-26T13:59:53.655Z,20.95
2022-10-26T14:02:46.379Z,21.04
2022-10-26T14:05:16.879Z,20.99
2022-10-26T14:07:50.460Z,20.68
2022-10-26T14:10:27.807Z,20.70
2022-10-26T14:12:55.505Z,20.78
2022-10-26T14:15:28.573Z,21.05
2022-10-26T14:17:56.860Z,21.08
2022-10-26T14:20:26.719Z,20.89
2022-10-26T14:22:54.502Z,20.98
2022-10-26T14:25:35.789Z,21.08
2022-10-26T14:28:23.075Z,20.90
2022-10-26T14:30:52.481Z,20.99
2022-10-26T14:33:21.498Z,20.88
2022-10-26T14:35:49.775Z,20.75
2022-10-26T14:38:22.404Z,20.67
2022-10-26T14:40:51.913Z,20.64
2022-10-26T14:43:23.223Z,20.64
2022-10-26T14:45:54.652Z,20.75
2022-10-26T14:48:26.171Z,20.66
2022-10-26T14:51:04.889Z,20.75
2022-10-26T14:53:38.818Z,20.46
2022-10-26T14:56:17.813Z,20.56
2022-10-26T14:58:45.429Z,20.63
2022-10-26T15:01:31.574Z,20.49
2022-10-26T15:04:03.432Z,20.46
2022-10-26T15:06:42.485Z,20.42
2022-10-26T15:09:43.453Z,20.45
2022-10-26T15:12:24.103Z,20.41
2022-10-26T15:14:52.366Z,20.39
2022-10-26T15:17:27.497Z,20.02
2022-10-26T15:19:56.320Z,20.16
2022-10-26T15:22:30.925Z,20.26
2022-10-26T15:25:01.721Z,20.12
2022-10-26T15:27:29.412Z,20.18
2022-10-26T15:30:15.873Z,20.13
2022-10-26T15:32:44.878Z,19.98
2022-10-26T15:35:31.929Z,20.03
2022-10-26T15:38:00.987Z,20.05
2022-10-26T15:40:31.835Z,19.99
2022-10-26T15:43:01.699Z,19.98
2022-10-26T15:45:33.040Z,19.97
2022-10-26T15:48:19.386Z,19.81
2022-10-26T15:50:47.000Z,19.71
2022-10-26T15:53:19.525Z,19.74
2022-10-26T15:55:47.459Z,19.58
2022-10-26T15:58:16.222Z,19.47
2022-10-26T16:00:44.095Z,19.34
2022-10-26T16:03:17.023Z,19.24
2022-10-26T16:05:44.697Z,19.10
2022-10-26T16:08:17.770Z,19.08
2022-10-26T16:10:46.892Z,19.00
2022-10-26T16:13:15.245Z,18.86
2022-10-26T16:15:43.235Z,18.80
2022-10-26T16:18:10.928Z,18.66
2022-10-26T16:20:40.227Z,18.52
2022-10-26T16:23:07.911Z,18.35
2022-10-26T16:25:41.228Z,17.90
2022-10-26T16:28:10.565Z,18.12
2022-10-26T16:30:38.249Z,17.90
2022-10-26T16:33:05.912Z,17.77
2022-10-26T16:35:33.690Z,17.63
2022-10-26T16:38:02.741Z,17.45
2022-10-26T16:40:30.370Z,17.35
2022-10-26T16:42:57.987Z,17.12
2022-10-26T16:45:25.632Z,16.84
2022-10-26T16:47:53.594Z,16.71
2022-10-26T16:50:22.129Z,16.65
2022-10-26T16:52:49.808Z,16.59
2022-10-26T16:55:18.915Z,16.53
2022-10-26T16:57:46.620Z,16.41
2022-10-26T17:00:14.715Z,16.35
2022-10-26T17:02:42.449Z,16.28
2022-10-26T17:05:10.362Z,16.28
2022-10-26T17:07:37.982Z,16.07
2022-10-26T17:10:06.378Z,16.15
2022-10-26T17:12:35.416Z,16.04
2022-10-26T17:15:03.063Z,16.02
2022-10-26T17:17:30.836Z,16.04
2022-10-26T17:19:58.837Z,16.09
2022-10-26T17:22:26.526Z,16.02
2022-10-26T17:24:54.231Z,16.27
2022-10-26T17:27:22.984Z,16.58
2022-10-26T17:29:51.922Z,16.46
2022-10-26T17:32:19.576Z,16.44
2022-10-26T17:34:47.259Z,16.46
2022-10-26T17:37:14.987Z,16.39
2022-10-26T17:39:42.662Z,16.42
2022-10-26T17:42:10.300Z,16.76
2022-10-26T17:44:38.980Z,17.00
2022-10-26T17:47:08.729Z,16.92
2022-10-26T17:49:36.559Z,16.83
2022-10-26T17:52:05.841Z,16.90
2022-10-26T17:54:33.582Z,16.82
2022-10-26T17:57:01.994Z,17.27
2022-10-26T17:59:29.848Z,17.47
2022-10-26T18:01:57.650Z,17.62
2022-10-26T18:04:26.705Z,17.70
2022-10-26T18:06:54.407Z,17.65
2022-10-26T18:09:22.426Z,17.66
2022-10-26T18:11:52.148Z,17.70
2022-10-26T18:14:22.650Z,17.92
2022-10-26T18:16:50.335Z,17.83
2022-10-26T18:19:17.972Z,17.61
2022-10-26T18:21:46.928Z,17.35
2022-10-26T18:24:14.544Z,17.08
2022-10-26T18:26:42.265Z,16.69
2022-10-26T18:29:12.208Z,16.52
2022-10-26T18:31:39.869Z,16.44
2022-10-26T18:34:07.661Z,16.50
2022-10-26T18:36:35.375Z,16.43
2022-10-26T18:39:04.837Z,16.10
2022-10-26T18:41:32.499Z,16.16
2022-10-26T18:44:01.532Z,15.90
2022-10-26T18:46:30.964Z,15.85
2022-10-26T18:49:00.611Z,15.71
2022-10-26T18:51:32.350Z,15.70
2022-10-26T18:54:00.920Z,15.64
2022-10-26T18:56:30.041Z,15.59
2022-10-26T18:58:59.684Z,15.51
2022-10-26T19:01:29.793Z,15.43
2022-10-26T19:03:59.249Z,15.48
2022-10-26T19:06:29.807Z,15.41
2022-10-26T19:08:58.139Z,15.31
2022-10-26T19:11:27.748Z,15.16
2022-10-26T19:13:57.509Z,15.21
2022-10-26T19:16:45.060Z,15.18
2022-10-26T19:19:14.605Z,15.02
2022-10-26T19:21:42.352Z,15.00
2022-10-26T19:24:13.898Z,14.98
2022-10-26T19:26:43.695Z,14.97
2022-10-26T19:29:15.144Z,14.92
2022-10-26T19:31:44.231Z,14.83
2022-10-26T19:34:13.289Z,14.80
2022-10-26T19:36:44.486Z,14.77
2022-10-26T19:39:12.941Z,14.82
2022-10-26T19:41:40.660Z,14.72
2022-10-26T19:44:08.387Z,14.64
2022-10-26T19:46:38.012Z,14.54
2022-10-26T19:49:05.662Z,14.51
2022-10-26T19:51:33.760Z,14.38
2022-10-26T19:54:03.876Z,14.49
2022-10-26T19:56:32.114Z,14.46
2022-10-26T19:58:59.864Z,14.35
2022-10-26T20:01:27.584Z,14.46
2022-10-26T20:04:15.245Z,14.29
2022-10-26T20:07:03.133Z,14.39
2022-10-26T20:09:51.163Z,14.38
2022-10-26T20:12:39.064Z,14.24
2022-10-26T20:15:26.986Z,14.18
2022-10-26T20:18:15.286Z,14.13
2022-10-26T20:21:07.658Z,14.07
2022-10-26T20:23:55.554Z,14.16
2022-10-26T20:26:43.468Z,14.11
2022-10-26T20:29:31.394Z,14.07
2022-10-26T20:32:19.512Z,14.14
2022-10-26T20:35:08.098Z,14.12
2022-10-26T20:37:57.951Z,14.09
2022-10-26T20:40:51.135Z,14.03
2022-10-26T20:43:40.500Z,14.03
2022-10-26T20:46:29.064Z,14.18
2022-10-26T20:49:17.433Z,14.03
2022-10-26T20:52:20.710Z,13.74
2022-10-26T20:55:22.608Z,13.67
2022-10-26T20:58:14.535Z,13.74
2022-10-26T21:01:04.849Z,13.76
2022-10-26T21:03:53.176Z,13.65
2022-10-26T21:06:41.046Z,13.54
2022-10-26T21:09:31.776Z,13.52
2022-10-26T21:12:24.913Z,13.41
2022-10-26T21:15:12.867Z,13.37
2022-10-26T21:18:00.858Z,13.52
2022-10-26T21:20:48.755Z,13.60
2022-10-26T21:23:39.250Z,13.59
2022-10-26T21:26:27.113Z,13.53
2022-10-26T21:29:16.512Z,13.55
2022-10-26T21:32:04.758Z,13.50
2022-10-26T21:34:52.756Z,13.39
2022-10-26T21:37:40.882Z,13.31
2022-10-26T21:40:28.928Z,13.42
2022-10-26T21:43:18.952Z,13.48
2022-10-26T21:46:09.827Z,13.38
2022-10-26T21:48:57.868Z,13.38
2022-10-26T21:51:46.058Z,13.38
2022-10-26T21:54:34.072Z,13.39
2022-10-26T21:57:22.088Z,13.38
2022-10-26T22:00:10.901Z,13.38
2022-10-26T22:03:02.595Z,13.23
2022-10-26T22:05:52.897Z,13.12
2022-10-26T22:08:41.447Z,12.99
2022-10-26T22:11:29.548Z,13.01
2022-10-26T22:14:18.921Z,12.64
2022-10-26T22:17:07.086Z,12.87
2022-10-26T22:19:56.464Z,12.93
2022-10-26T22:22:44.739Z,13.01
2022-10-26T22:25:33.244Z,13.02
2022-10-26T22:28:21.160Z,13.12
2022-10-26T22:31:11.016Z,13.21
2022-10-26T22:34:04.811Z,13.23
2022-10-26T22:36:56.769Z,13.22
2022-10-26T22:39:44.710Z,13.03
2022-10-26T22:42:32.633Z,12.95
2022-10-26T22:45:20.551Z,12.97
2022-10-26T22:51:06.633Z,12.77
2022-10-26T22:53:57.926Z,12.91
2022-10-26T22:56:45.796Z,12.89
2022-10-26T22:59:33.706Z,12.81
2022-10-26T23:02:21.624Z,12.68
2022-10-26T23:05:09.968Z,12.78
2022-10-26T23:07:58.162Z,12.73
2022-10-26T23:10:47.473Z,12.69
2022-10-26T23:13:35.369Z,12.62
2022-10-26T23:16:23.522Z,12.55
2022-10-26T23:19:11.489Z,12.54
2022-10-26T23:21:59.413Z,11.97
2022-10-26T23:24:47.297Z,12.76
2022-10-26T23:27:36.517Z,12.65
2022-10-26T23:30:24.392Z,12.59
2022-10-26T23:33:12.304Z,12.61
2022-10-26T23:36:01.169Z,12.64
2022-10-26T23:38:49.422Z,12.66
2022-10-26T23:41:37.321Z,12.71
2022-10-26T23:44:26.626Z,12.68
2022-10-26T23:47:14.526Z,12.71
2022-10-26T23:50:02.476Z,12.67
2022-10-26T23:52:50.645Z,12.65
2022-10-26T23:55:38.837Z,12.65
2022-10-26T23:58:26.767Z,12.66
